Time;durP1;ratioP1;P1;durP2;ratioP2;P2;SDS_P1;SDS_P2;PMS_P1;PMS_P2;Temp;Humidity;BMP_temperature;BMP_pressure;BME280_temperature;BME280_humidity;BME280_pressure;Samples;Min_cycle;Max_cycle;Signal;HPM_P1;HPM_P2
2021/09/09 00:01:46;;;;;;;;;0.00;0.00;;;;;24.17;67.68;100597.34;5079884;28;48041;-82
2021/09/09 00:04:12;;;;;;;;;0.50;0.00;;;;;24.12;67.41;100594.88;5081937;28;45661;-83
2021/09/09 00:06:37;;;;;;;;;0.00;0.00;;;;;24.27;67.97;100608.34;5081967;27;45353;-84
2021/09/09 00:09:04;;;;;;;;;0.25;0.25;;;;;24.09;68.12;100588.84;5083820;27;45156;-90
2021/09/09 00:11:30;;;;;;;;;3.25;1.00;;;;;24.65;68.41;100695.09;5081087;28;47461;-84
2021/09/09 00:13:55;;;;;;;;;0.75;0.75;;;;;24.11;68.09;100598.47;5081071;28;45315;-83
2021/09/09 00:16:30;;;;;;;;;1.25;0.00;;;;;23.88;67.38;100575.69;5081645;28;45319;-84
2021/09/09 00:18:56;;;;;;;;;1.00;0.25;;;;;23.66;67.70;100551.06;5081894;27;45385;-84
2021/09/09 00:21:21;;;;;;;;;0.00;0.00;;;;;23.47;67.54;100513.94;5081976;27;46598;-87
2021/09/09 00:23:47;;;;;;;;;2.50;1.00;;;;;23.60;68.06;100530.13;5082969;28;45408;-86
2021/09/09 00:26:15;;;;;;;;;0.75;0.00;;;;;23.67;67.47;100528.88;5082750;27;45366;-82
2021/09/09 00:28:44;;;;;;;;;0.00;0.00;;;;;24.29;67.37;100633.09;5083015;27;45228;-85
2021/09/09 00:31:10;;;;;;;;;1.00;1.00;;;;;23.61;67.38;100510.56;5080229;28;47080;-86
2021/09/09 00:33:43;;;;;;;;;2.00;0.25;;;;;23.54;67.18;100510.03;5080981;28;46945;-86
2021/09/09 00:36:09;;;;;;;;;0.00;0.00;;;;;23.85;67.19;100566.09;5083055;27;45230;-84
2021/09/09 00:38:34;;;;;;;;;0.75;0.75;;;;;24.43;67.17;100672.25;5082394;28;45619;-85
2021/09/09 00:41:02;;;;;;;;;1.00;1.00;;;;;23.92;67.74;100590.59;5081395;28;47203;-84
2021/09/09 00:43:27;;;;;;;;;0.25;0.25;;;;;23.11;68.72;100469.63;5081159;28;45284;-84
2021/09/09 00:45:54;;;;;;;;;1.00;1.00;;;;;23.73;68.58;100582.66;5082677;28;45414;-83
2021/09/09 00:48:27;;;;;;;;;0.00;0.00;;;;;23.45;67.93;100539.69;5082761;28;45566;-85
2021/09/09 00:50:55;;;;;;;;;0.50;0.50;;;;;23.66;68.03;100584.75;5083457;28;46048;-84
2021/09/09 00:53:26;;;;;;;;;0.00;0.00;;;;;23.52;68.99;100557.06;5086702;27;45291;-86
2021/09/09 00:55:52;;;;;;;;;1.50;0.00;;;;;23.28;67.88;100525.41;5087126;27;45359;-86
2021/09/09 00:58:18;;;;;;;;;1.00;1.00;;;;;23.13;68.30;100504.94;5085098;28;45559;-85
2021/09/09 01:00:44;;;;;;;;;0.00;0.00;;;;;23.74;68.14;100614.44;5084127;28;45482;-84
2021/09/09 01:03:12;;;;;;;;;0.75;0.75;;;;;23.80;67.81;100647.84;5083783;28;45419;-85
2021/09/09 01:05:47;;;;;;;;;3.00;0.00;;;;;23.66;68.10;100637.88;5085412;27;45315;-85
2021/09/09 01:11:11;;;;;;;;;0.00;0.00;;;;;22.77;68.81;100499.50;5065808;28;45377;-84
2021/09/09 01:13:50;;;;;;;;;0.00;0.00;;;;;23.58;68.55;100659.50;5073767;28;45796;-85
2021/09/09 01:16:21;;;;;;;;;1.00;1.00;;;;;23.90;68.42;100699.63;5083275;28;45333;-84
2021/09/09 01:18:52;;;;;;;;;0.00;0.00;;;;;23.54;68.85;100632.22;5083487;28;45379;-84
2021/09/09 01:24:28;;;;;;;;;0.75;0.75;;;;;22.76;68.37;100511.03;5085464;27;45330;-84
2021/09/09 01:27:11;;;;;;;;;1.75;0.00;;;;;22.53;68.59;100467.84;5083678;27;45405;-84
2021/09/09 01:29:50;;;;;;;;;0.25;0.00;;;;;23.92;68.38;100696.91;5084666;28;45378;-84
2021/09/09 01:32:17;;;;;;;;;1.00;1.00;;;;;22.61;67.91;100472.84;5083625;28;47226;-84
2021/09/09 01:34:45;;;;;;;;;1.00;1.00;;;;;23.43;68.46;100607.13;5084044;28;45330;-84
2021/09/09 01:37:30;;;;;;;;;0.25;0.00;;;;;23.88;68.66;100692.63;5083621;27;45343;-84
2021/09/09 01:39:59;;;;;;;;;2.00;2.00;;;;;22.88;68.36;100538.78;5084936;27;45580;-84
2021/09/09 01:42:29;;;;;;;;;1.00;1.00;;;;;23.07;68.90;100593.69;5085096;27;46953;-85
2021/09/09 01:44:59;;;;;;;;;2.50;1.00;;;;;23.08;68.67;100581.25;5091892;27;45506;-83
2021/09/09 01:48:06;;;;;;;;;1.00;1.00;;;;;23.83;68.68;100710.63;5102029;28;45379;-85
2021/09/09 01:50:50;;;;;;;;;1.75;0.75;;;;;22.67;68.71;100513.25;5064272;28;45276;-85
2021/09/09 01:53:21;;;;;;;;;0.25;0.25;;;;;23.52;69.38;100650.03;5085024;27;48126;-85
2021/09/09 01:55:50;;;;;;;;;1.00;1.00;;;;;23.09;68.91;100612.19;5083519;28;45731;-84
2021/09/09 01:58:25;;;;;;;;;;;;;;;;;;;;;
2021/09/09 02:01:01;;;;;;;;;;;;;;;;;;;;;
2021/09/09 02:03:27;;;;;;;;;0.00;0.00;;;;;22.89;69.48;100598.91;5063424;28;74772;-83
2021/09/09 02:05:55;;;;;;;;;1.00;0.00;;;;;22.46;69.10;100513.25;5083222;28;45276;-81
2021/09/09 02:08:32;;;;;;;;;0.75;0.00;;;;;23.06;68.79;100604.38;5083367;27;45383;-82
2021/09/09 02:11:08;;;;;;;;;1.50;0.00;;;;;22.70;69.38;100532.56;5083525;27;45345;-84
2021/09/09 02:13:34;;;;;;;;;0.50;0.50;;;;;23.84;69.03;100707.03;5063024;28;45475;-83
2021/09/09 02:16:00;;;;;;;;;0.00;0.00;;;;;23.72;68.83;100680.09;5083654;28;45267;-83
2021/09/09 02:18:25;;;;;;;;;0.00;0.00;;;;;23.83;68.88;100705.31;5085355;27;45303;-83
2021/09/09 02:20:50;;;;;;;;;0.00;0.00;;;;;23.85;69.09;100719.38;5098266;28;45215;-83
2021/09/09 02:23:16;;;;;;;;;1.00;1.00;;;;;23.65;68.75;100687.50;5102110;28;45175;-83
2021/09/09 02:25:41;;;;;;;;;2.75;0.50;;;;;23.57;69.39;100672.84;5095066;27;44856;-83
2021/09/09 02:28:07;;;;;;;;;1.50;0.00;;;;;23.65;68.77;100686.66;5085570;27;45261;-83
2021/09/09 02:30:32;;;;;;;;;0.00;0.00;;;;;23.77;69.29;100704.66;5083594;28;45492;-84
2021/09/09 02:32:58;;;;;;;;;1.00;0.00;;;;;23.73;69.00;100697.75;5082280;28;48265;-83
2021/09/09 02:35:23;;;;;;;;;0.75;0.50;;;;;23.57;69.21;100670.19;5083045;28;45197;-83
2021/09/09 02:37:49;;;;;;;;;4.75;1.00;;;;;23.39;68.76;100646.22;5083044;28;45258;-83
2021/09/09 02:40:15;;;;;;;;;0.50;0.50;;;;;23.78;69.08;100714.38;5078470;27;45243;-83
2021/09/09 02:42:47;;;;;;;;;0.00;0.00;;;;;23.85;68.84;100704.28;5081446;28;47265;-82
2021/09/09 02:45:12;;;;;;;;;2.00;0.50;;;;;23.92;68.96;100696.91;5083020;27;45200;-83
2021/09/09 02:47:38;;;;;;;;;2.00;0.00;;;;;23.83;68.91;100681.38;5082585;27;45363;-83
2021/09/09 02:50:05;;;;;;;;;0.50;0.50;;;;;23.88;68.86;100692.63;5082078;28;45580;-84
2021/09/09 02:52:31;;;;;;;;;0.50;0.50;;;;;23.49;68.75;100620.09;5081196;27;45660;-84
2021/09/09 02:54:56;;;;;;;;;0.25;0.25;;;;;23.44;68.62;100620.31;5081013;27;45304;-83
2021/09/09 02:57:22;;;;;;;;;0.25;0.00;;;;;23.78;68.72;100681.59;5082036;27;45355;-84
2021/09/09 02:59:47;;;;;;;;;1.00;1.00;;;;;23.81;68.99;100689.44;5083212;28;45538;-84
2021/09/09 03:02:13;;;;;;;;;0.50;0.00;;;;;23.84;68.52;100704.38;5082537;28;45628;-85
2021/09/09 03:04:39;;;;;;;;;0.00;0.00;;;;;23.86;69.05;100713.13;5082421;27;45322;-84
2021/09/09 03:07:04;;;;;;;;;3.00;1.00;;;;;23.72;68.88;100712.00;5084357;28;45286;-85
2021/09/09 03:09:29;;;;;;;;;1.00;0.75;;;;;23.53;69.19;100677.47;5082255;27;45337;-85
2021/09/09 03:11:55;;;;;;;;;1.00;1.00;;;;;23.66;68.98;100677.75;5082109;28;46444;-84
2021/09/09 03:14:23;;;;;;;;;0.00;0.00;;;;;23.75;68.83;100703.88;5081520;27;45277;-85
2021/09/09 03:16:49;;;;;;;;;1.00;0.00;;;;;23.53;68.89;100659.75;5084238;27;45215;-85
2021/09/09 03:19:15;;;;;;;;;1.00;1.00;;;;;23.70;68.30;100694.41;5082135;27;45667;-85
2021/09/09 03:21:40;;;;;;;;;0.75;0.75;;;;;23.60;69.01;100672.72;5081796;28;47194;-84
2021/09/09 03:24:06;;;;;;;;;0.00;0.00;;;;;23.63;68.11;100689.38;5081669;28;45330;-85
2021/09/09 03:26:31;;;;;;;;;0.00;0.00;;;;;23.21;68.76;100639.97;5082382;27;45374;-84
2021/09/09 03:28:56;;;;;;;;;1.00;1.00;;;;;23.31;68.14;100659.84;5082968;27;45330;-85
2021/09/09 03:31:22;;;;;;;;;0.00;0.00;;;;;23.47;69.13;100702.53;5081729;27;46947;-85
2021/09/09 03:33:47;;;;;;;;;0.00;0.00;;;;;23.13;68.83;100658.91;5083562;28;45428;-84
2021/09/09 03:36:13;;;;;;;;;1.00;0.25;;;;;23.26;68.40;100681.31;5082386;28;45402;-87
2021/09/09 03:38:39;;;;;;;;;0.00;0.00;;;;;23.32;69.10;100709.38;5082916;28;45511;-87
2021/09/09 03:41:04;;;;;;;;;0.00;0.00;;;;;23.29;69.18;100696.22;5083213;27;45719;-85
2021/09/09 03:43:30;;;;;;;;;1.00;1.00;;;;;23.20;69.16;100678.06;5082229;27;45306;-88
2021/09/09 03:45:56;;;;;;;;;0.50;0.50;;;;;23.32;68.95;100688.13;5082280;28;45508;-87
2021/09/09 03:48:21;;;;;;;;;1.00;1.00;;;;;23.33;68.57;100673.91;5088382;27;45518;-87
2021/09/09 03:50:47;;;;;;;;;0.00;0.00;;;;;23.10;68.33;100641.31;5100082;28;46659;-86
2021/09/09 03:53:12;;;;;;;;;1.00;1.00;;;;;23.36;68.54;100678.19;5104170;27;44781;-85
2021/09/09 03:55:38;;;;;;;;;0.75;0.75;;;;;23.38;68.59;100679.03;5088667;28;45724;-87
2021/09/09 03:58:03;;;;;;;;;0.00;0.00;;;;;23.32;68.95;100669.53;5083370;28;45495;-87
2021/09/09 04:00:29;;;;;;;;;0.25;0.25;;;;;23.35;68.61;100660.56;5083234;27;46392;-87
2021/09/09 04:02:55;;;;;;;;;0.00;0.00;;;;;23.49;68.59;100681.22;5082005;28;45680;-86
2021/09/09 04:05:21;;;;;;;;;0.25;0.25;;;;;23.53;68.08;100694.28;5082329;28;45310;-84
2021/09/09 04:07:47;;;;;;;;;0.75;0.75;;;;;23.26;67.96;100649.44;5083284;27;45333;-84
2021/09/09 04:10:13;;;;;;;;;1.75;0.00;;;;;23.38;68.21;100668.41;5081769;27;46964;-85
2021/09/09 04:12:41;;;;;;;;;1.25;1.25;;;;;23.56;68.12;100695.91;5081169;28;45319;-85
2021/09/09 04:15:10;;;;;;;;;0.00;0.00;;;;;23.56;68.64;100687.94;5080929;28;45306;-85
2021/09/09 04:17:36;;;;;;;;;1.50;0.00;;;;;23.33;68.16;100649.16;5081948;27;45390;-85
2021/09/09 04:20:05;;;;;;;;;0.00;0.00;;;;;23.58;68.47;100690.53;5080962;27;45423;-85
2021/09/09 04:22:31;;;;;;;;;0.00;0.00;;;;;23.52;68.06;100687.22;5091133;27;46850;-84
2021/09/09 04:24:58;;;;;;;;;0.00;0.00;;;;;23.48;68.45;100671.50;5126239;27;44847;-83
2021/09/09 04:27:24;;;;;;;;;1.00;1.00;;;;;23.44;67.88;100653.97;5117754;27;45431;-84
2021/09/09 04:29:53;;;;;;;;;0.00;0.00;;;;;23.42;68.21;100648.75;5101971;27;47279;-86
2021/09/09 04:32:21;;;;;;;;;0.00;0.00;;;;;23.36;68.18;100635.72;5084468;27;45572;-86
2021/09/09 04:34:46;;;;;;;;;0.50;0.25;;;;;23.28;68.17;100612.19;5080992;27;45248;-84
2021/09/09 04:37:12;;;;;;;;;0.25;0.25;;;;;22.78;67.60;100525.09;5078589;28;45256;-86
2021/09/09 04:39:43;;;;;;;;;1.00;1.00;;;;;22.86;67.12;100545.09;5080195;28;46923;-84
2021/09/09 04:43:13;;;;;;;;;0.00;0.00;;;;;23.50;67.51;100666.97;5113789;27;45433;-84
2021/09/09 04:45:42;;;;;;;;;0.00;0.00;;;;;22.48;67.90;100508.78;5037994;28;45577;-84
2021/09/09 04:48:07;;;;;;;;;1.00;1.00;;;;;22.98;67.67;100572.88;5056189;28;45521;-84
2021/09/09 04:50:35;;;;;;;;;1.00;1.00;;;;;22.73;67.98;100532.38;5055819;28;47450;-84
2021/09/09 04:53:23;;;;;;;;;0.00;0.00;;;;;23.42;68.18;100654.06;5057044;28;45414;-83
2021/09/09 04:55:49;;;;;;;;;1.50;0.50;;;;;22.23;67.85;100455.03;5054738;28;45486;-85
2021/09/09 04:58:23;;;;;;;;;1.50;0.75;;;;;23.26;68.23;100649.44;5058165;28;45606;-85
2021/09/09 05:00:49;;;;;;;;;0.00;0.00;;;;;22.65;67.97;100546.03;5056493;28;47631;-84
2021/09/09 05:03:17;;;;;;;;;5.00;1.00;;;;;22.01;68.23;100448.06;5056399;28;45406;-86
2021/09/09 05:05:48;;;;;;;;;0.00;0.00;;;;;22.27;67.85;100501.69;5058394;28;45429;-85
2021/09/09 05:08:34;;;;;;;;;0.00;0.00;;;;;21.96;68.55;100454.50;5073729;27;45568;-86
2021/09/09 05:11:00;;;;;;;;;0.00;0.00;;;;;22.43;68.12;100524.88;5059432;28;46233;-86
2021/09/09 05:14:00;;;;;;;;;0.00;0.00;;;;;22.56;68.22;100538.44;5057784;28;45552;-85
2021/09/09 05:16:26;;;;;;;;;1.00;0.00;;;;;23.32;68.13;100660.69;5071893;27;45591;-86
2021/09/09 05:18:51;;;;;;;;;2.50;0.00;;;;;22.76;68.10;100560.59;5077606;28;45606;-85
2021/09/09 05:21:29;;;;;;;;;0.00;0.00;;;;;22.32;67.95;100496.19;5077823;28;46841;-85
2021/09/09 05:24:09;;;;;;;;;0.75;0.75;;;;;22.83;68.25;100574.44;5081322;27;45343;-83
2021/09/09 05:26:45;;;;;;;;;0.00;0.00;;;;;22.35;67.79;100506.66;5079157;28;45456;-83
2021/09/09 05:29:11;;;;;;;;;1.25;0.00;;;;;21.97;68.06;100438.53;5077540;28;45333;-82
2021/09/09 05:31:36;;;;;;;;;0.00;0.00;;;;;22.56;68.15;100537.56;5078204;27;47619;-84
2021/09/09 05:34:19;;;;;;;;;0.00;0.00;;;;;23.39;68.30;100672.78;5082029;28;45325;-84
2021/09/09 05:37:03;;;;;;;;;0.00;0.00;;;;;22.00;68.33;100440.16;5083065;28;45359;-84
2021/09/09 05:39:29;;;;;;;;;0.00;0.00;;;;;23.05;68.07;100619.44;5111946;27;46317;-82
2021/09/09 05:42:11;;;;;;;;;0.00;0.00;;;;;23.40;67.98;100686.00;5080838;28;47132;-83
2021/09/09 05:44:43;;;;;;;;;1.00;1.00;;;;;22.99;68.09;100609.97;5082674;28;45504;-83
2021/09/09 05:47:14;;;;;;;;;0.00;0.00;;;;;22.78;68.44;100570.19;5081520;27;45374;-79
2021/09/09 05:50:24;;;;;;;;;0.00;0.00;;;;;23.24;68.12;100645.97;5083121;28;45623;-85
2021/09/09 05:52:50;;;;;;;;;0.75;0.75;;;;;23.29;68.42;100659.91;5076770;28;48199;-82
2021/09/09 05:55:35;;;;;;;;;0.00;0.00;;;;;22.96;67.78;100609.22;5082719;28;45607;-82
2021/09/09 05:58:01;;;;;;;;;1.00;0.50;;;;;22.77;68.23;100584.41;5082021;28;45516;-84
2021/09/09 06:00:26;;;;;;;;;0.75;0.25;;;;;22.93;68.06;100612.03;5082914;28;45551;-83
2021/09/09 06:02:52;;;;;;;;;1.00;1.00;;;;;23.40;68.18;100691.31;5082513;27;45847;-82
2021/09/09 06:05:18;;;;;;;;;1.50;1.00;;;;;23.32;67.77;100676.63;5082949;27;45444;-85
2021/09/09 06:07:44;;;;;;;;;1.50;1.50;;;;;23.32;68.28;100681.94;5083834;27;45340;-85
2021/09/09 06:10:10;;;;;;;;;0.50;0.50;;;;;23.54;67.66;100722.56;5082231;28;45331;-81
2021/09/09 06:12:36;;;;;;;;;0.00;0.00;;;;;23.47;67.74;100721.13;5081231;27;45420;-82
2021/09/09 06:15:11;;;;;;;;;1.75;0.00;;;;;23.32;67.99;100701.41;5081801;27;44918;-84
2021/09/09 06:17:36;;;;;;;;;0.25;0.25;;;;;23.21;68.55;100693.06;5083051;28;45283;-84
2021/09/09 06:20:06;;;;;;;;;1.00;1.00;;;;;22.64;68.10;100596.50;5082945;27;45586;-88
2021/09/09 06:22:43;;;;;;;;;0.75;0.75;;;;;22.45;68.51;100577.84;5083502;27;45657;-83
2021/09/09 06:25:09;;;;;;;;;0.00;0.00;;;;;22.96;68.04;100673.78;5089491;28;45428;-85
2021/09/09 06:27:46;;;;;;;;;3.00;0.25;;;;;22.16;68.05;100541.06;5105052;28;44824;-83
2021/09/09 06:30:14;;;;;;;;;0.50;0.00;;;;;23.13;68.42;100699.56;5092302;27;44808;-81
2021/09/09 06:32:50;;;;;;;;;1.00;1.00;;;;;22.17;68.04;100542.78;5083494;27;45560;-89
2021/09/09 06:35:15;;;;;;;;;1.50;0.00;;;;;22.59;68.58;100615.25;5095602;27;45634;-83
2021/09/09 06:38:23;;;;;;;;;0.00;0.00;;;;;22.62;68.20;100611.59;5082835;28;45415;-81
2021/09/09 06:41:24;;;;;;;;;2.50;0.75;;;;;22.53;67.70;100583.66;5080491;28;45329;-82
2021/09/09 06:43:50;;;;;;;;;1.00;1.00;;;;;22.90;68.63;100635.13;5113265;27;48313;-80
2021/09/09 06:46:23;;;;;;;;;3.75;2.00;;;;;23.67;67.79;100745.88;5077528;27;45690;-81
2021/09/09 06:48:48;;;;;;;;;1.00;1.00;;;;;22.75;66.86;100588.91;5091107;27;45272;-80
2021/09/09 06:51:19;;;;;;;;;0.75;0.75;;;;;23.40;67.35;100693.97;5089435;27;45576;-79
2021/09/09 06:53:48;;;;;;;;;6.25;2.00;;;;;23.34;66.74;100678.28;5080114;28;48108;-80
2021/09/09 06:56:26;;;;;;;;;3.75;2.50;;;;;23.50;66.23;100717.44;5082375;27;45323;-79
2021/09/09 06:59:01;;;;;;;;;2.00;1.00;;;;;22.62;66.72;100579.78;5081388;27;45375;-78
2021/09/09 07:02:29;;;;;;;;;1.75;1.75;;;;;22.70;66.66;100606.84;5087677;27;45612;-79
2021/09/09 07:04:58;;;;;;;;;1.00;1.00;;;;;23.66;67.04;100760.09;5085035;28;47249;-79
2021/09/09 07:07:24;;;;;;;;;1.50;1.50;;;;;23.16;66.64;100686.16;5082924;28;45281;-80
2021/09/09 07:09:49;;;;;;;;;1.00;1.00;;;;;23.27;66.32;100698.06;5081865;28;45440;-81
2021/09/09 07:13:17;;;;;;;;;;;;;;;;;;;;;
2021/09/09 07:16:47;;;;;;;;;1.00;1.00;;;;;23.07;66.56;100653.88;5081193;28;75323;-79
2021/09/09 07:19:23;;;;;;;;;0.00;0.00;;;;;23.02;66.95;100633.72;5073673;28;45201;-78
2021/09/09 07:22:15;;;;;;;;;1.00;1.00;;;;;23.18;66.86;100659.53;5067529;27;45248;-79
2021/09/09 07:25:09;;;;;;;;;0.25;0.25;;;;;22.74;66.51;100595.16;5053839;28;45166;-80
2021/09/09 07:27:38;;;;;;;;;1.00;1.00;;;;;22.96;66.33;100620.72;5058974;28;45430;-81
2021/09/09 07:30:16;;;;;;;;;1.00;1.00;;;;;23.33;66.78;100686.34;5044332;28;45712;-80
2021/09/09 07:33:26;;;;;;;;;1.50;0.00;;;;;23.50;66.27;100714.78;5057157;28;45526;-81
2021/09/09 07:36:07;;;;;;;;;0.75;0.75;;;;;23.59;66.50;100742.72;5044093;28;45532;-80
2021/09/09 07:38:49;;;;;;;;;2.00;2.00;;;;;23.15;66.09;100670.28;5040259;28;46543;-80
2021/09/09 07:41:20;;;;;;;;;0.00;0.00;;;;;23.32;66.96;100727.94;5046148;28;45295;-80
2021/09/09 07:44:02;;;;;;;;;0.00;0.00;;;;;22.85;66.30;100645.06;5048411;28;45458;-81
2021/09/09 07:46:30;;;;;;;;;1.25;1.25;;;;;22.28;66.59;100553.81;5033864;28;45432;-80
2021/09/09 07:49:08;;;;;;;;;1.00;1.00;;;;;23.54;66.84;100766.84;5060967;28;45276;-82
2021/09/09 07:54:36;;;;;;;;;2.00;2.00;;;;;22.73;67.11;100646.47;5074675;28;45579;-80
2021/09/09 07:57:02;;;;;;;;;2.75;1.00;;;;;22.74;66.96;100636.72;5041372;28;45673;-81
2021/09/09 07:59:46;;;;;;;;;1.00;1.00;;;;;22.62;66.75;100608.94;5050666;28;48299;-80
2021/09/09 08:02:54;;;;;;;;;0.25;0.25;;;;;22.90;66.50;100666.09;5060882;28;44864;-80
2021/09/09 08:08:55;;;;;;;;;;;;;;;;;;;;;
2021/09/09 08:11:27;;;;;;;;;0.00;0.00;;;;;22.91;66.94;100689.06;5059629;28;76130;-82
2021/09/09 08:14:02;;;;;;;;;1.50;1.50;;;;;22.47;66.98;100597.19;5042355;28;45454;-81
2021/09/09 08:16:37;;;;;;;;;0.00;0.00;;;;;23.23;66.87;100702.69;5062110;28;45276;-82
2021/09/09 08:19:05;;;;;;;;;1.00;0.50;;;;;22.30;65.97;100553.72;5077856;28;45676;-84
2021/09/09 08:21:34;;;;;;;;;0.00;0.00;;;;;22.48;66.35;100605.09;5043749;28;47908;-80
2021/09/09 08:23:59;;;;;;;;;1.00;0.25;;;;;23.21;66.60;100725.78;5043661;28;45534;-81
2021/09/09 08:26:25;;;;;;;;;1.00;1.00;;;;;23.55;66.12;100784.50;5060966;28;45553;-80
2021/09/09 08:28:50;;;;;;;;;1.50;1.50;;;;;23.11;66.26;100725.34;5064731;28;45353;-80
2021/09/09 08:31:16;;;;;;;;;0.00;0.00;;;;;23.52;65.94;100782.84;5077429;28;45617;-81
2021/09/09 08:33:42;;;;;;;;;0.25;0.00;;;;;23.38;66.51;100767.56;5059417;28;45303;-80
2021/09/09 08:36:09;;;;;;;;;0.50;0.00;;;;;23.43;66.15;100777.09;5079241;28;45395;-83
2021/09/09 08:38:35;;;;;;;;;1.75;1.75;;;;;23.09;65.84;100731.66;5095470;27;45256;-82
2021/09/09 08:41:02;;;;;;;;;0.50;0.50;;;;;23.22;66.21;100761.16;5073044;28;48658;-81
2021/09/09 08:43:28;;;;;;;;;1.50;0.00;;;;;23.08;66.41;100762.63;5081341;28;45338;-80
2021/09/09 08:45:58;;;;;;;;;0.75;0.50;;;;;23.15;66.62;100792.41;5081183;28;45395;-81
2021/09/09 08:48:24;;;;;;;;;0.25;0.00;;;;;22.78;66.86;100726.75;5064154;28;45294;-81
2021/09/09 08:50:50;;;;;;;;;1.50;1.00;;;;;23.18;66.51;100784.31;5063853;28;48454;-81
2021/09/09 08:53:16;;;;;;;;;1.00;1.00;;;;;22.86;67.13;100730.84;5057872;28;45592;-83
2021/09/09 08:55:43;;;;;;;;;1.50;1.50;;;;;23.11;66.64;100783.75;5063408;28;45436;-84
2021/09/09 08:58:09;;;;;;;;;1.50;1.00;;;;;23.17;66.64;100798.53;5059622;28;45456;-87
2021/09/09 09:00:38;;;;;;;;;1.50;1.50;;;;;22.87;66.88;100757.31;5057931;28;47012;-81
2021/09/09 09:03:03;;;;;;;;;0.75;0.75;;;;;22.58;67.22;100703.72;5081524;27;45467;-83
2021/09/09 09:05:38;;;;;;;;;2.50;1.00;;;;;22.99;66.91;100776.28;5062777;28;45600;-82
2021/09/09 09:08:05;;;;;;;;;1.00;1.00;;;;;23.01;66.75;100775.31;5094890;27;45294;-81
2021/09/09 09:10:32;;;;;;;;;1.00;1.00;;;;;23.10;67.05;100789.13;5084102;28;46134;-84
2021/09/09 09:12:59;;;;;;;;;1.00;1.00;;;;;23.31;67.05;100805.03;5100692;27;45592;-84
2021/09/09 09:15:27;;;;;;;;;0.25;0.25;;;;;23.40;66.24;100808.16;5066752;28;45419;-84
2021/09/09 09:17:56;;;;;;;;;0.00;0.00;;;;;23.22;66.71;100772.66;5099082;27;45459;-83
2021/09/09 09:20:23;;;;;;;;;0.00;0.00;;;;;23.37;66.30;100791.53;5085503;27;45700;-85
2021/09/09 09:22:49;;;;;;;;;1.00;1.00;;;;;23.29;66.24;100775.88;5120164;27;45518;-88
2021/09/09 09:25:37;;;;;;;;;1.00;0.00;;;;;23.27;66.00;100775.97;5091784;27;45326;-86
2021/09/09 09:28:28;;;;;;;;;0.75;0.75;;;;;23.18;66.08;100759.59;5094799;27;45559;-84
2021/09/09 09:31:07;;;;;;;;;0.50;0.00;;;;;22.41;66.11;100600.97;5084885;27;48372;-83
2021/09/09 09:33:55;;;;;;;;;0.00;0.00;;;;;22.96;65.91;100679.09;5085128;27;45424;-80
2021/09/09 09:36:36;;;;;;;;;0.00;0.00;;;;;23.41;65.70;100739.97;5099983;27;45357;-82
2021/09/09 09:39:34;;;;;;;;;0.00;0.00;;;;;22.64;65.46;100621.22;5054495;28;45232;-84
2021/09/09 09:42:06;;;;;;;;;0.50;0.50;;;;;23.45;65.44;100736.25;5059586;28;45661;-84
2021/09/09 09:44:46;;;;;;;;;0.00;0.00;;;;;22.90;65.22;100632.47;5061997;28;45622;-81
2021/09/09 09:47:50;;;;;;;;;1.75;0.00;;;;;23.75;65.10;100743.75;5063412;28;45457;-80
2021/09/09 09:50:44;;;;;;;;;0.00;0.00;;;;;24.13;64.97;100806.69;5057441;28;45769;-80
2021/09/09 09:53:41;;;;;;;;;0.00;0.00;;;;;23.65;65.18;100742.44;5059094;28;45439;-79
2021/09/09 09:56:06;;;;;;;;;0.00;0.00;;;;;23.47;64.71;100715.81;5040065;28;45646;-79
2021/09/09 09:58:32;;;;;;;;;0.00;0.00;;;;;23.27;64.96;100655.59;5037956;28;45640;-81
2021/09/09 10:01:07;;;;;;;;;2.00;1.00;;;;;24.10;64.63;100761.59;5043279;28;45474;-81
2021/09/09 10:03:34;;;;;;;;;0.00;0.00;;;;;24.46;64.40;100797.13;5057204;28;48155;-82
2021/09/09 10:05:59;;;;;;;;;2.25;0.00;;;;;24.61;63.88;100806.16;5042131;28;45269;-84
2021/09/09 10:08:24;;;;;;;;;0.50;0.00;;;;;24.63;63.87;100792.78;5047099;28;45584;-82
2021/09/09 10:10:50;;;;;;;;;1.00;1.00;;;;;24.79;63.05;100799.06;5084815;27;46250;-82
2021/09/09 10:13:18;;;;;;;;;1.25;0.00;;;;;24.84;63.21;100787.31;5083011;27;46734;-81
2021/09/09 10:15:45;;;;;;;;;1.00;0.50;;;;;24.94;62.99;100788.59;5105620;27;45455;-79
2021/09/09 10:18:10;;;;;;;;;1.00;1.00;;;;;24.90;62.55;100763.09;5087008;27;45361;-80
2021/09/09 10:20:41;;;;;;;;;0.00;0.00;;;;;25.22;62.31;100800.47;5097179;27;45495;-83
2021/09/09 10:23:25;;;;;;;;;0.00;0.00;;;;;25.31;62.40;100807.13;5090996;27;45426;-79
2021/09/09 10:26:06;;;;;;;;;0.25;0.25;;;;;24.93;61.67;100746.97;5105419;27;46364;-79
2021/09/09 10:31:12;;;;;;;;;0.00;0.00;;;;;24.38;61.85;100595.34;5104445;27;45199;-83
2021/09/09 10:33:46;;;;;;;;;0.50;0.50;;;;;25.35;61.30;100727.88;5099681;27;45513;-82
2021/09/09 10:36:39;;;;;;;;;1.00;1.00;;;;;25.88;60.80;100800.56;5081172;27;45573;-82
2021/09/09 10:39:09;;;;;;;;;1.50;1.50;;;;;25.89;59.75;100791.63;5099562;27;45468;-80
2021/09/09 10:41:35;;;;;;;;;1.75;0.75;;;;;25.81;59.89;100793.84;5103732;27;45584;-81
2021/09/09 10:44:08;;;;;;;;;0.50;0.00;;;;;25.79;60.05;100793.09;5102023;27;46594;-82
2021/09/09 10:46:40;;;;;;;;;1.00;1.00;;;;;25.83;60.63;100799.09;5082166;27;45723;-82
2021/09/09 10:49:11;;;;;;;;;0.75;0.25;;;;;25.88;59.41;100795.22;5083389;27;45455;-82
2021/09/09 10:51:37;;;;;;;;;0.00;0.00;;;;;25.63;59.66;100743.25;5119076;27;46812;-82
2021/09/09 10:54:04;;;;;;;;;0.25;0.00;;;;;26.12;58.86;100794.78;5083918;27;45627;-82
2021/09/09 10:56:35;;;;;;;;;0.00;0.00;;;;;26.17;58.39;100795.41;5085110;27;45349;-82
2021/09/09 10:59:11;;;;;;;;;1.50;1.00;;;;;26.03;58.20;100764.16;5104165;27;45295;-82
2021/09/09 11:01:38;;;;;;;;;0.00;0.00;;;;;26.17;58.12;100782.06;5095960;28;45538;-82
2021/09/09 11:04:05;;;;;;;;;2.50;0.00;;;;;26.22;57.29;100792.50;5103756;27;45499;-80
2021/09/09 11:06:30;;;;;;;;;1.00;1.00;;;;;25.94;56.61;100770.03;5090518;27;45323;-82
2021/09/09 11:08:58;;;;;;;;;1.50;1.00;;;;;25.73;57.43;100748.09;5087639;27;45252;-82
2021/09/09 11:11:29;;;;;;;;;0.75;0.75;;;;;25.75;57.25;100757.72;5102757;27;45572;-82
2021/09/09 11:13:59;;;;;;;;;0.00;0.00;;;;;26.00;56.25;100793.69;5104733;27;47037;-82
2021/09/09 11:16:29;;;;;;;;;0.00;0.00;;;;;25.93;56.24;100786.97;5079785;27;45266;-82
2021/09/09 11:18:55;;;;;;;;;3.00;1.00;;;;;26.01;57.18;100775.88;5086170;27;45460;-82
2021/09/09 11:21:31;;;;;;;;;0.00;0.00;;;;;25.85;57.01;100733.22;5085246;27;45553;-82
2021/09/09 11:24:02;;;;;;;;;0.00;0.00;;;;;26.08;56.95;100779.03;5085247;27;45505;-83
2021/09/09 11:26:28;;;;;;;;;0.00;0.00;;;;;26.25;56.38;100778.94;5085146;27;45417;-84
2021/09/09 11:28:56;;;;;;;;;0.00;0.00;;;;;26.27;54.92;100750.38;5085361;27;45351;-83
2021/09/09 11:31:23;;;;;;;;;1.00;1.00;;;;;26.56;54.39;100771.03;5103625;27;45289;-83
2021/09/09 11:34:00;;;;;;;;;0.50;0.50;;;;;26.76;53.77;100768.97;5083946;27;47071;-82
2021/09/09 11:36:27;;;;;;;;;0.00;0.00;;;;;26.22;53.36;100683.13;5084110;27;45414;-83
2021/09/09 11:38:55;;;;;;;;;1.00;0.00;;;;;26.05;53.06;100682.28;5084991;27;45357;-83
2021/09/09 11:41:23;;;;;;;;;0.00;0.00;;;;;26.06;52.38;100702.66;5085133;27;45355;-84
2021/09/09 11:43:50;;;;;;;;;0.00;0.00;;;;;25.83;52.80;100674.66;5085069;27;45518;-84
2021/09/09 11:46:30;;;;;;;;;0.00;0.00;;;;;26.25;52.33;100730.94;5084098;27;45331;-84
2021/09/09 11:49:01;;;;;;;;;0.00;0.00;;;;;26.31;52.80;100733.28;5101530;27;44672;-80
2021/09/09 11:51:34;;;;;;;;;0.00;0.00;;;;;26.54;52.78;100760.44;5122864;27;44764;-82
2021/09/09 11:54:00;;;;;;;;;0.00;0.00;;;;;26.37;52.19;100733.88;5085012;27;47961;-82
2021/09/09 11:56:25;;;;;;;;;0.00;0.00;;;;;26.36;51.38;100714.34;5076579;27;45345;-86
2021/09/09 11:58:51;;;;;;;;;0.00;0.00;;;;;26.50;51.08;100742.88;5102131;27;45396;-80
2021/09/09 12:01:20;;;;;;;;;0.00;0.00;;;;;26.43;50.37;100744.19;5104628;27;45381;-86
2021/09/09 12:03:46;;;;;;;;;0.00;0.00;;;;;26.25;50.33;100716.75;5103215;27;46501;-83
2021/09/09 12:06:15;;;;;;;;;1.00;0.00;;;;;26.30;51.37;100734.22;5084442;27;45260;-83